Time;durP1;ratioP1;P1;durP2;ratioP2;P2;SDS_P1;SDS_P2;PMS_P1;PMS_P2;Temp;Humidity;BMP_temperature;BMP_pressure;BME280_temperature;BME280_humidity;BME280_pressure;Samples;Min_cycle;Max_cycle;Signal;HPM_P1;HPM_P2
2023/06/20 00:01:47;;;;;;;;;;;;;;;;;;5010834;28;7149;-81
2023/06/20 00:04:13;;;;;;;;;;;;;;;;;;4994811;28;8528;-81
2023/06/20 00:06:39;;;;;;;;;;;;;;;;;;4995776;28;7406;-81
2023/06/20 00:09:04;;;;;;;;;;;;;;;;;;4994801;28;8688;-81
2023/06/20 00:11:30;;;;;;;;;;;;;;;;;;4994594;28;8820;-81
2023/06/20 00:13:57;;;;;;;;;;;;;;;;;;4994424;28;8551;-80
2023/06/20 00:16:24;;;;;;;;;;;;;;;;;;4994643;28;9227;-80
2023/06/20 00:18:53;;;;;;;;;;;;;;;;;;4994426;28;8977;-80
2023/06/20 00:21:20;;;;;;;;;;;;;;;;;;4994213;28;8940;-79
2023/06/20 00:23:46;;;;;;;;;;;;;;;;;;4994399;28;8554;-79
2023/06/20 00:26:11;;;;;;;;;;;;;;;;;;4993824;28;8515;-80
2023/06/20 00:28:37;;;;;;;;;;;;;;;;;;4994130;28;8859;-80
2023/06/20 00:31:02;;;;;;;;;;;;;;;;;;4994183;28;8508;-80
2023/06/20 00:33:28;;;;;;;;;;;;;;;;;;4994175;28;8752;-79
2023/06/20 00:35:53;;;;;;;;;;;;;;;;;;4994218;28;8508;-80
2023/06/20 00:38:19;;;;;;;;;;;;;;;;;;4994010;28;8502;-79
2023/06/20 00:40:45;;;;;;;;;;;;;;;;;;4994080;28;8919;-79
2023/06/20 00:43:12;;;;;;;;;;;;;;;;;;4994031;28;8646;-79
2023/06/20 00:45:37;;;;;;;;;;;;;;;;;;4993254;28;8903;-79
2023/06/20 00:48:05;;;;;;;;;;;;;;;;;;4993391;28;8841;-80
2023/06/20 00:50:32;;;;;;;;;;;;;;;;;;4993264;28;8518;-80
2023/06/20 00:52:58;;;;;;;;;;;;;;;;;;4993779;28;8520;-80
2023/06/20 00:55:24;;;;;;;;;;;;;;;;;;5010325;28;8554;-80
2023/06/20 00:57:50;;;;;;;;;;;;;;;;;;4993724;28;8807;-82
2023/06/20 01:00:15;;;;;;;;;;;;;;;;;;4993539;28;8899;-85
2023/06/20 01:02:46;;;;;;;;;;;;;;;;;;4993754;28;8465;-82
2023/06/20 01:05:16;;;;;;;;;;;;;;;;;;4994072;28;8617;-82
2023/06/20 01:07:50;;;;;;;;;;;;;;;;;;4993519;28;8600;-82
2023/06/20 01:10:35;;;;;;;;;;;;;;;;;;4993800;28;9063;-82
2023/06/20 01:13:01;;;;;;;;;;;;;;;;;;4993575;28;8545;-82
2023/06/20 01:15:35;;;;;;;;;;;;;;;;;;5009810;28;8509;-82
2023/06/20 01:18:04;;;;;;;;;;;;;;;;;;4993339;28;7593;-82
2023/06/20 01:20:44;;;;;;;;;;;;;;;;;;5009594;28;8634;-82
2023/06/20 01:23:20;;;;;;;;;;;;;;;;;;4993355;28;7254;-82
2023/06/20 01:26:05;;;;;;;;;;;;;;;;;;4993249;28;8489;-82
2023/06/20 01:28:43;;;;;;;;;;;;;;;;;;5009319;28;8918;-82
2023/06/20 01:31:14;;;;;;;;;;;;;;;;;;4993187;28;8459;-82
2023/06/20 01:34:03;;;;;;;;;;;;;;;;;;4993124;28;8579;-82
2023/06/20 01:36:32;;;;;;;;;;;;;;;;;;4992566;28;8835;-82
2023/06/20 01:39:02;;;;;;;;;;;;;;;;;;4993170;28;8552;-82
2023/06/20 01:41:31;;;;;;;;;;;;;;;;;;4992902;28;8865;-82
2023/06/20 01:43:57;;;;;;;;;;;;;;;;;;4992964;28;8559;-82
2023/06/20 01:46:24;;;;;;;;;;;;;;;;;;4992957;28;8561;-82
2023/06/20 01:48:53;;;;;;;;;;;;;;;;;;4993425;28;8944;-82
2023/06/20 01:51:19;;;;;;;;;;;;;;;;;;4992908;28;8759;-82
2023/06/20 01:53:46;;;;;;;;;;;;;;;;;;4992835;28;7240;-82
2023/06/20 01:56:13;;;;;;;;;;;;;;;;;;4993308;28;8469;-82
2023/06/20 01:58:40;;;;;;;;;;;;;;;;;;4992916;28;8550;-82
2023/06/20 02:01:07;;;;;;;;;;;;;;;;;;4992621;28;8913;-81
2023/06/20 02:03:34;;;;;;;;;;;;;;;;;;4992726;28;8803;-82
2023/06/20 02:06:01;;;;;;;;;;;;;;;;;;4992691;28;8777;-81
2023/06/20 02:08:32;;;;;;;;;;;;;;;;;;4992678;28;8540;-81
2023/06/20 02:11:01;;;;;;;;;;;;;;;;;;4992648;28;8588;-82
2023/06/20 02:13:27;;;;;;;;;;;;;;;;;;4992441;28;8550;-81
2023/06/20 02:15:54;;;;;;;;;;;;;;;;;;4992541;28;8802;-82
2023/06/20 02:18:21;;;;;;;;;;;;;;;;;;4992417;28;8534;-81
2023/06/20 02:20:50;;;;;;;;;;;;;;;;;;4992538;28;7364;-81
2023/06/20 02:23:22;;;;;;;;;;;;;;;;;;4992557;28;8556;-81
2023/06/20 02:25:50;;;;;;;;;;;;;;;;;;4992668;28;8512;-81
2023/06/20 02:28:16;;;;;;;;;;;;;;;;;;4992389;28;8605;-81
2023/06/20 02:30:43;;;;;;;;;;;;;;;;;;4992467;28;8900;-82
2023/06/20 02:33:12;;;;;;;;;;;;;;;;;;4992007;28;8534;-81
2023/06/20 02:35:39;;;;;;;;;;;;;;;;;;4992749;28;8891;-81
2023/06/20 02:38:06;;;;;;;;;;;;;;;;;;4992273;28;8465;-81
2023/06/20 02:40:32;;;;;;;;;;;;;;;;;;4992452;28;7286;-82
2023/06/20 02:42:57;;;;;;;;;;;;;;;;;;4992292;28;8845;-81
2023/06/20 02:45:23;;;;;;;;;;;;;;;;;;4992166;28;8520;-81
2023/06/20 02:48:12;;;;;;;;;;;;;;;;;;4993322;28;8470;-82
2023/06/20 02:50:56;;;;;;;;;;;;;;;;;;4995715;28;8464;-81
2023/06/20 02:53:29;;;;;;;;;;;;;;;;;;5012371;28;8659;-81
2023/06/20 02:56:05;;;;;;;;;;;;;;;;;;4996092;28;8701;-82
2023/06/20 02:58:32;;;;;;;;;;;;;;;;;;4996068;28;8552;-82
2023/06/20 03:01:00;;;;;;;;;;;;;;;;;;4995932;28;7288;-82
2023/06/20 03:03:30;;;;;;;;;;;;;;;;;;4995829;28;7551;-81
2023/06/20 03:05:57;;;;;;;;;;;;;;;;;;4995850;28;8530;-81
2023/06/20 03:08:25;;;;;;;;;;;;;;;;;;4995782;28;8481;-82
2023/06/20 03:10:52;;;;;;;;;;;;;;;;;;4995870;28;8946;-82
2023/06/20 03:13:17;;;;;;;;;;;;;;;;;;4995772;28;8537;-82
2023/06/20 03:15:43;;;;;;;;;;;;;;;;;;4995706;28;8651;-81
2023/06/20 03:18:11;;;;;;;;;;;;;;;;;;4995753;28;8532;-82
2023/06/20 03:20:37;;;;;;;;;;;;;;;;;;4995445;28;8701;-82
2023/06/20 03:23:03;;;;;;;;;;;;;;;;;;4995741;28;8454;-81
2023/06/20 03:25:28;;;;;;;;;;;;;;;;;;4995420;28;8824;-81
2023/06/20 03:27:54;;;;;;;;;;;;;;;;;;4995196;28;8505;-82
2023/06/20 03:30:20;;;;;;;;;;;;;;;;;;4995240;28;9443;-82
2023/06/20 03:32:45;;;;;;;;;;;;;;;;;;4995427;28;8902;-82
2023/06/20 03:35:11;;;;;;;;;;;;;;;;;;4995525;28;8813;-82
2023/06/20 03:37:36;;;;;;;;;;;;;;;;;;4995214;28;8513;-82
2023/06/20 03:40:03;;;;;;;;;;;;;;;;;;4995025;28;8603;-82
2023/06/20 03:42:29;;;;;;;;;;;;;;;;;;4995236;28;9151;-84
2023/06/20 03:44:54;;;;;;;;;;;;;;;;;;4995783;28;8521;-82
2023/06/20 03:47:20;;;;;;;;;;;;;;;;;;4995027;28;8393;-82
2023/06/20 03:49:46;;;;;;;;;;;;;;;;;;4995108;28;8523;-82
2023/06/20 03:52:11;;;;;;;;;;;;;;;;;;4995014;28;8888;-82
2023/06/20 03:54:41;;;;;;;;;;;;;;;;;;4995239;28;8708;-82
2023/06/20 03:57:06;;;;;;;;;;;;;;;;;;4994865;28;7288;-82
2023/06/20 03:59:32;;;;;;;;;;;;;;;;;;4993891;28;8784;-84
2023/06/20 04:01:57;;;;;;;;;;;;;;;;;;4995027;28;8857;-83
2023/06/20 04:04:23;;;;;;;;;;;;;;;;;;4994951;28;8624;-84
2023/06/20 04:06:49;;;;;;;;;;;;;;;;;;4994703;28;9156;-86
2023/06/20 04:09:19;;;;;;;;;;;;;;;;;;4994853;28;8979;-84
2023/06/20 04:11:45;;;;;;;;;;;;;;;;;;4994697;28;9023;-85
2023/06/20 04:14:11;;;;;;;;;;;;;;;;;;4993702;28;8511;-84
2023/06/20 04:16:37;;;;;;;;;;;;;;;;;;4999054;28;9046;-84
2023/06/20 04:19:03;;;;;;;;;;;;;;;;;;4998965;28;8468;-85
2023/06/20 04:21:31;;;;;;;;;;;;;;;;;;5001481;28;9013;-85
2023/06/20 04:23:57;;;;;;;;;;;;;;;;;;4983638;28;8793;-85
2023/06/20 04:26:23;;;;;;;;;;;;;;;;;;4993940;28;7153;-84
2023/06/20 04:28:49;;;;;;;;;;;;;;;;;;4993548;28;7620;-87
2023/06/20 04:31:14;;;;;;;;;;;;;;;;;;5001982;28;8628;-86
2023/06/20 04:33:45;;;;;;;;;;;;;;;;;;4983943;28;7288;-85
2023/06/20 04:36:14;;;;;;;;;;;;;;;;;;4994209;28;8890;-85
2023/06/20 04:38:41;;;;;;;;;;;;;;;;;;4993753;28;8481;-86
2023/06/20 04:41:06;;;;;;;;;;;;;;;;;;4989735;28;8554;-84
2023/06/20 04:43:32;;;;;;;;;;;;;;;;;;4993590;28;9528;-84
2023/06/20 04:45:58;;;;;;;;;;;;;;;;;;4989900;28;8955;-87
2023/06/20 04:48:42;;;;;;;;;;;;;;;;;;4991624;28;8862;-87
2023/06/20 04:51:11;;;;;;;;;;;;;;;;;;4984112;28;7328;-86
2023/06/20 04:53:37;;;;;;;;;;;;;;;;;;4989382;28;8614;-85
2023/06/20 04:56:03;;;;;;;;;;;;;;;;;;4991330;28;8556;-84
2023/06/20 04:58:28;;;;;;;;;;;;;;;;;;4993005;28;8589;-85
2023/06/20 05:00:55;;;;;;;;;;;;;;;;;;4981826;28;8452;-84
2023/06/20 05:03:21;;;;;;;;;;;;;;;;;;5004361;28;8687;-83
2023/06/20 05:05:46;;;;;;;;;;;;;;;;;;4990407;28;8690;-85
2023/06/20 05:08:12;;;;;;;;;;;;;;;;;;4989778;28;8533;-83
2023/06/20 05:10:37;;;;;;;;;;;;;;;;;;5000964;28;8556;-84
2023/06/20 05:13:03;;;;;;;;;;;;;;;;;;4991943;28;8908;-84
2023/06/20 05:15:28;;;;;;;;;;;;;;;;;;4992996;28;8567;-85
2023/06/20 05:17:54;;;;;;;;;;;;;;;;;;4999882;28;8712;-84
2023/06/20 05:20:20;;;;;;;;;;;;;;;;;;4991353;28;8685;-84
2023/06/20 05:22:46;;;;;;;;;;;;;;;;;;4991762;28;8573;-84
2023/06/20 05:25:11;;;;;;;;;;;;;;;;;;5000701;28;8490;-83
2023/06/20 05:27:37;;;;;;;;;;;;;;;;;;5012095;28;7169;-83
2023/06/20 05:30:03;;;;;;;;;;;;;;;;;;5012648;28;8604;-83
2023/06/20 05:32:29;;;;;;;;;;;;;;;;;;5012680;28;8562;-84
2023/06/20 05:34:54;;;;;;;;;;;;;;;;;;5012673;28;8521;-84
2023/06/20 05:37:20;;;;;;;;;;;;;;;;;;5013028;28;7606;-83
2023/06/20 05:39:45;;;;;;;;;;;;;;;;;;5013080;28;9876;-82
2023/06/20 05:42:11;;;;;;;;;;;;;;;;;;5012690;28;8558;-84
2023/06/20 05:44:37;;;;;;;;;;;;;;;;;;5012583;28;8497;-85
2023/06/20 05:47:03;;;;;;;;;;;;;;;;;;5012502;28;9531;-85
2023/06/20 05:49:29;;;;;;;;;;;;;;;;;;5012498;28;8545;-86
2023/06/20 05:51:54;;;;;;;;;;;;;;;;;;5012364;28;8563;-88
2023/06/20 05:54:22;;;;;;;;;;;;;;;;;;5012462;28;8590;-88
2023/06/20 05:56:48;;;;;;;;;;;;;;;;;;5012333;28;8873;-88
2023/06/20 05:59:14;;;;;;;;;;;;;;;;;;5012392;28;8680;-89
2023/06/20 06:01:40;;;;;;;;;;;;;;;;;;5012085;28;8541;-87
2023/06/20 06:04:06;;;;;;;;;;;;;;;;;;5012708;28;8611;-87
2023/06/20 06:06:31;;;;;;;;;;;;;;;;;;5012406;28;8772;-87
2023/06/20 06:08:57;;;;;;;;;;;;;;;;;;5012265;28;8836;-86
2023/06/20 06:11:23;;;;;;;;;;;;;;;;;;5012179;28;8812;-88
2023/06/20 06:13:49;;;;;;;;;;;;;;;;;;5011858;28;8458;-86
2023/06/20 06:16:15;;;;;;;;;;;;;;;;;;5012615;28;8782;-87
2023/06/20 06:18:41;;;;;;;;;;;;;;;;;;5012010;28;8809;-88
2023/06/20 06:21:07;;;;;;;;;;;;;;;;;;5012286;28;8569;-88
2023/06/20 06:23:33;;;;;;;;;;;;;;;;;;5008385;28;7178;-85
2023/06/20 06:25:58;;;;;;;;;;;;;;;;;;5012986;28;8624;-86
2023/06/20 06:28:26;;;;;;;;;;;;;;;;;;5012637;28;8875;-87
2023/06/20 06:30:52;;;;;;;;;;;;;;;;;;5012916;28;8730;-88
2023/06/20 06:33:19;;;;;;;;;;;;;;;;;;4996588;28;8561;-87
2023/06/20 06:35:45;;;;;;;;;;;;;;;;;;5012851;28;9046;-87
2023/06/20 06:38:11;;;;;;;;;;;;;;;;;;5012686;28;8554;-87
2023/06/20 06:40:37;;;;;;;;;;;;;;;;;;5012540;28;8570;-87
2023/06/20 06:43:03;;;;;;;;;;;;;;;;;;5012678;28;8618;-87
2023/06/20 06:45:29;;;;;;;;;;;;;;;;;;5012541;28;9431;-86
2023/06/20 06:47:55;;;;;;;;;;;;;;;;;;5013056;28;8867;-87
2023/06/20 06:50:20;;;;;;;;;;;;;;;;;;5012544;28;8463;-87
2023/06/20 06:52:46;;;;;;;;;;;;;;;;;;5012746;28;8447;-85
2023/06/20 06:55:12;;;;;;;;;;;;;;;;;;5012390;28;8591;-88
2023/06/20 06:57:38;;;;;;;;;;;;;;;;;;5012392;28;8514;-88
2023/06/20 07:00:09;;;;;;;;;;;;;;;;;;5012267;28;8930;-87
2023/06/20 07:02:35;;;;;;;;;;;;;;;;;;5012252;28;8839;-86
2023/06/20 07:05:01;;;;;;;;;;;;;;;;;;5012466;28;8554;-86
2023/06/20 07:07:26;;;;;;;;;;;;;;;;;;5012207;28;8474;-87
2023/06/20 07:09:52;;;;;;;;;;;;;;;;;;5012099;28;8610;-86
2023/06/20 07:12:17;;;;;;;;;;;;;;;;;;5012182;28;8572;-87
2023/06/20 07:14:43;;;;;;;;;;;;;;;;;;5012160;28;7274;-89
2023/06/20 07:17:09;;;;;;;;;;;;;;;;;;5012254;28;8835;-88
2023/06/20 07:19:34;;;;;;;;;;;;;;;;;;5011855;28;8959;-88
2023/06/20 07:22:00;;;;;;;;;;;;;;;;;;5011357;28;7181;-90
2023/06/20 07:24:25;;;;;;;;;;;;;;;;;;5008698;28;8495;-87
2023/06/20 07:26:51;;;;;;;;;;;;;;;;;;4988123;28;8608;-87
2023/06/20 07:29:16;;;;;;;;;;;;;;;;;;4975920;28;8559;-86
2023/06/20 07:31:42;;;;;;;;;;;;;;;;;;4976118;28;8589;-82
2023/06/20 07:34:07;;;;;;;;;;;;;;;;;;4974673;28;8508;-84
2023/06/20 07:36:33;;;;;;;;;;;;;;;;;;4975109;28;8911;-83
2023/06/20 07:38:58;;;;;;;;;;;;;;;;;;4975933;28;8556;-83
2023/06/20 07:41:23;;;;;;;;;;;;;;;;;;4975649;28;8839;-82
2023/06/20 07:43:49;;;;;;;;;;;;;;;;;;4975808;28;8918;-83
2023/06/20 07:46:15;;;;;;;;;;;;;;;;;;4975501;28;8722;-83
2023/06/20 07:48:41;;;;;;;;;;;;;;;;;;4975476;28;7184;-83
2023/06/20 07:51:07;;;;;;;;;;;;;;;;;;4976778;28;8798;-84
2023/06/20 07:53:32;;;;;;;;;;;;;;;;;;4982905;28;9941;-83
2023/06/20 07:55:59;;;;;;;;;;;;;;;;;;5002438;28;8943;-83
2023/06/20 07:58:25;;;;;;;;;;;;;;;;;;5011420;28;8588;-83
2023/06/20 08:00:50;;;;;;;;;;;;;;;;;;5011168;28;8570;-83
2023/06/20 08:03:21;;;;;;;;;;;;;;;;;;5011139;28;8541;-83
2023/06/20 08:05:46;;;;;;;;;;;;;;;;;;5008667;28;9186;-83
2023/06/20 08:08:12;;;;;;;;;;;;;;;;;;4994519;28;8541;-83
2023/06/20 08:10:37;;;;;;;;;;;;;;;;;;4986279;28;8467;-83
2023/06/20 08:13:03;;;;;;;;;;;;;;;;;;4991560;28;8588;-83
2023/06/20 08:15:29;;;;;;;;;;;;;;;;;;4974937;28;8586;-83
2023/06/20 08:17:54;;;;;;;;;;;;;;;;;;5002585;28;8647;-83
2023/06/20 08:20:20;;;;;;;;;;;;;;;;;;4988568;28;8515;-83
2023/06/20 08:22:46;;;;;;;;;;;;;;;;;;5008682;28;7486;-83
2023/06/20 08:25:12;;;;;;;;;;;;;;;;;;5010049;28;8740;-83
2023/06/20 08:27:38;;;;;;;;;;;;;;;;;;4980989;28;8886;-82
2023/06/20 08:30:03;;;;;;;;;;;;;;;;;;4997601;28;8526;-82
2023/06/20 08:32:29;;;;;;;;;;;;;;;;;;4983936;28;8542;-82
2023/06/20 08:34:54;;;;;;;;;;;;;;;;;;4996033;28;8627;-83
2023/06/20 08:37:21;;;;;;;;;;;;;;;;;;4995456;28;7831;-82
2023/06/20 08:39:47;;;;;;;;;;;;;;;;;;4986925;28;8731;-82
2023/06/20 08:42:13;;;;;;;;;;;;;;;;;;4975312;28;7191;-83
2023/06/20 08:44:38;;;;;;;;;;;;;;;;;;4975294;28;7147;-83
2023/06/20 08:47:04;;;;;;;;;;;;;;;;;;4974657;28;8486;-83
2023/06/20 08:49:29;;;;;;;;;;;;;;;;;;4975041;28;8841;-83
2023/06/20 08:51:58;;;;;;;;;;;;;;;;;;4975487;28;8650;-83
2023/06/20 08:54:28;;;;;;;;;;;;;;;;;;4975196;28;8612;-83
2023/06/20 08:56:54;;;;;;;;;;;;;;;;;;4975406;28;8478;-83
2023/06/20 08:59:21;;;;;;;;;;;;;;;;;;4980602;28;8790;-83
2023/06/20 09:01:47;;;;;;;;;;;;;;;;;;4982326;28;8648;-83
2023/06/20 09:04:13;;;;;;;;;;;;;;;;;;4997500;28;9443;-83
2023/06/20 09:06:38;;;;;;;;;;;;;;;;;;4986202;28;8536;-83
2023/06/20 09:09:14;;;;;;;;;;;;;;;;;;5008119;28;8903;-82
2023/06/20 09:11:41;;;;;;;;;;;;;;;;;;4979642;28;8570;-83
2023/06/20 09:14:06;;;;;;;;;;;;;;;;;;4982867;28;7371;-83
2023/06/20 09:16:32;;;;;;;;;;;;;;;;;;4987796;28;7306;-83
2023/06/20 09:18:58;;;;;;;;;;;;;;;;;;4997796;28;8468;-84
2023/06/20 09:21:24;;;;;;;;;;;;;;;;;;4979210;28;8493;-83
2023/06/20 09:24:00;;;;;;;;;;;;;;;;;;4996926;28;7219;-84
2023/06/20 09:26:28;;;;;;;;;;;;;;;;;;4993786;28;8874;-84
2023/06/20 09:29:04;;;;;;;;;;;;;;;;;;4992910;28;7190;-82
2023/06/20 09:31:39;;;;;;;;;;;;;;;;;;4993437;28;7404;-84
2023/06/20 09:34:04;;;;;;;;;;;;;;;;;;4993515;28;8549;-83
2023/06/20 09:36:30;;;;;;;;;;;;;;;;;;4993133;28;9013;-83
2023/06/20 09:38:58;;;;;;;;;;;;;;;;;;4993460;28;8650;-84
2023/06/20 09:41:24;;;;;;;;;;;;;;;;;;4991717;28;7182;-84
2023/06/20 09:43:49;;;;;;;;;;;;;;;;;;4991599;28;8885;-82
2023/06/20 09:46:15;;;;;;;;;;;;;;;;;;4991410;28;8569;-83
2023/06/20 09:48:41;;;;;;;;;;;;;;;;;;4991786;28;9500;-82
2023/06/20 09:51:10;;;;;;;;;;;;;;;;;;4991421;28;8574;-84
2023/06/20 09:53:46;;;;;;;;;;;;;;;;;;4991706;28;7303;-82
2023/06/20 09:56:14;;;;;;;;;;;;;;;;;;4992153;28;8609;-83
2023/06/20 09:58:46;;;;;;;;;;;;;;;;;;4992114;28;8472;-83
2023/06/20 10:01:14;;;;;;;;;;;;;;;;;;4992669;28;8613;-83
2023/06/20 10:03:41;;;;;;;;;;;;;;;;;;4992556;28;7274;-82
2023/06/20 10:06:08;;;;;;;;;;;;;;;;;;4992902;28;8829;-83
2023/06/20 10:08:34;;;;;;;;;;;;;;;;;;5009222;28;8460;-83
2023/06/20 10:11:00;;;;;;;;;;;;;;;;;;5009373;28;8514;-83
2023/06/20 10:13:26;;;;;;;;;;;;;;;;;;5008703;28;8537;-82
2023/06/20 10:15:53;;;;;;;;;;;;;;;;;;5008900;28;8585;-85
2023/06/20 10:18:34;;;;;;;;;;;;;;;;;;5009189;28;7200;-83
2023/06/20 10:21:04;;;;;;;;;;;;;;;;;;5000917;28;8919;-83
2023/06/20 10:23:31;;;;;;;;;;;;;;;;;;4995664;28;8439;-83
2023/06/20 10:25:58;;;;;;;;;;;;;;;;;;4998587;28;7323;-83
2023/06/20 10:28:24;;;;;;;;;;;;;;;;;;4999572;28;8570;-83
2023/06/20 10:30:50;;;;;;;;;;;;;;;;;;4990446;28;7241;-84
2023/06/20 10:33:31;;;;;;;;;;;;;;;;;;5005546;28;7203;-83
2023/06/20 10:36:07;;;;;;;;;;;;;;;;;;5008581;28;8438;-84
2023/06/20 10:38:40;;;;;;;;;;;;;;;;;;4990441;28;7376;-84
2023/06/20 10:41:22;;;;;;;;;;;;;;;;;;4979032;28;7337;-83
2023/06/20 10:43:52;;;;;;;;;;;;;;;;;;5006736;28;8568;-83
2023/06/20 10:46:19;;;;;;;;;;;;;;;;;;5004875;28;8478;-83
2023/06/20 10:48:45;;;;;;;;;;;;;;;;;;4987895;28;7399;-83
2023/06/20 10:51:11;;;;;;;;;;;;;;;;;;5008433;28;8579;-83
2023/06/20 10:53:37;;;;;;;;;;;;;;;;;;5008819;28;7324;-83
2023/06/20 10:56:02;;;;;;;;;;;;;;;;;;5008579;28;8573;-83
2023/06/20 10:58:28;;;;;;;;;;;;;;;;;;5008333;28;8443;-83
2023/06/20 11:00:54;;;;;;;;;;;;;;;;;;5008331;28;8510;-83
2023/06/20 11:03:21;;;;;;;;;;;;;;;;;;5008364;28;8968;-83
2023/06/20 11:05:51;;;;;;;;;;;;;;;;;;5008800;28;8669;-84
2023/06/20 11:08:23;;;;;;;;;;;;;;;;;;5008383;28;8503;-84
2023/06/20 11:10:49;;;;;;;;;;;;;;;;;;5012457;28;8441;-83
2023/06/20 11:13:14;;;;;;;;;;;;;;;;;;5011814;28;8666;-84
2023/06/20 11:15:40;;;;;;;;;;;;;;;;;;5011940;28;8529;-82
2023/06/20 11:18:07;;;;;;;;;;;;;;;;;;5012228;28;8611;-84
2023/06/20 11:20:43;;;;;;;;;;;;;;;;;;5011758;28;8569;-84
2023/06/20 11:23:10;;;;;;;;;;;;;;;;;;5011421;28;8455;-83
2023/06/20 11:25:37;;;;;;;;;;;;;;;;;;5010957;28;9432;-83
2023/06/20 11:28:13;;;;;;;;;;;;;;;;;;5006232;28;8859;-83
2023/06/20 11:30:40;;;;;;;;;;;;;;;;;;4992115;28;8577;-83
2023/06/20 11:33:10;;;;;;;;;;;;;;;;;;4992172;28;8777;-83
2023/06/20 11:35:41;;;;;;;;;;;;;;;;;;4991878;28;8942;-82
2023/06/20 11:38:11;;;;;;;;;;;;;;;;;;4992009;28;7326;-82
2023/06/20 11:40:38;;;;;;;;;;;;;;;;;;4991784;28;8584;-82
2023/06/20 11:43:04;;;;;;;;;;;;;;;;;;4991817;28;9522;-82
2023/06/20 11:45:30;;;;;;;;;;;;;;;;;;4992263;28;8536;-83
2023/06/20 11:48:09;;;;;;;;;;;;;;;;;;4991971;28;8621;-83
2023/06/20 11:50:35;;;;;;;;;;;;;;;;;;4991854;28;8539;-84
2023/06/20 11:53:01;;;;;;;;;;;;;;;;;;4991562;28;8507;-83
2023/06/20 11:55:46;;;;;;;;;;;;;;;;;;4991497;28;8867;-83
2023/06/20 11:58:12;;;;;;;;;;;;;;;;;;4991737;28;7198;-82
2023/06/20 12:00:37;;;;;;;;;;;;;;;;;;4991339;28;8508;-84
2023/06/20 12:03:08;;;;;;;;;;;;;;;;;;4986973;28;8567;-83
2023/06/20 12:05:34;;;;;;;;;;;;;;;;;;4991718;28;8837;-83
2023/06/20 12:07:59;;;;;;;;;;;;;;;;;;4991444;28;9203;-83
2023/06/20 12:10:25;;;;;;;;;;;;;;;;;;4992038;28;8465;-83
2023/06/20 12:12:51;;;;;;;;;;;;;;;;;;4991057;28;8525;-82
2023/06/20 12:15:16;;;;;;;;;;;;;;;;;;4994339;28;8514;-84
2023/06/20 12:17:41;;;;;;;;;;;;;;;;;;5009846;28;8854;-84
2023/06/20 12:20:08;;;;;;;;;;;;;;;;;;4996330;28;9421;-83
2023/06/20 12:22:33;;;;;;;;;;;;;;;;;;5010677;28;9001;-82
2023/06/20 12:25:00;;;;;;;;;;;;;;;;;;4998551;28;8600;-83
2023/06/20 12:27:25;;;;;;;;;;;;;;;;;;5007384;28;9155;-83
2023/06/20 12:29:51;;;;;;;;;;;;;;;;;;4999050;28;8712;-83
2023/06/20 12:32:16;;;;;;;;;;;;;;;;;;4991161;28;8727;-84
2023/06/20 12:34:42;;;;;;;;;;;;;;;;;;4991009;28;8602;-83
2023/06/20 12:37:07;;;;;;;;;;;;;;;;;;4990882;28;8603;-83
2023/06/20 12:39:34;;;;;;;;;;;;;;;;;;4990604;28;8534;-83
2023/06/20 12:41:59;;;;;;;;;;;;;;;;;;4990706;28;8910;-83
2023/06/20 12:44:26;;;;;;;;;;;;;;;;;;4999444;28;8470;-83
2023/06/20 12:46:52;;;;;;;;;;;;;;;;;;4991613;28;9088;-83
2023/06/20 12:49:19;;;;;;;;;;;;;;;;;;4992059;28;8710;-83
2023/06/20 12:51:45;;;;;;;;;;;;;;;;;;4983713;28;9148;-83
2023/06/20 12:54:11;;;;;;;;;;;;;;;;;;4998294;28;8548;-83
2023/06/20 12:56:37;;;;;;;;;;;;;;;;;;4991359;28;9119;-83
2023/06/20 12:59:04;;;;;;;;;;;;;;;;;;4997729;28;8556;-83
2023/06/20 13:01:30;;;;;;;;;;;;;;;;;;5007762;28;9590;-83
2023/06/20 13:03:56;;;;;;;;;;;;;;;;;;5009039;28;8555;-83
2023/06/20 13:06:22;;;;;;;;;;;;;;;;;;5009822;28;8559;-83
2023/06/20 13:08:47;;;;;;;;;;;;;;;;;;5009837;28;8868;-83
2023/06/20 13:11:14;;;;;;;;;;;;;;;;;;5008145;28;8669;-83
2023/06/20 13:13:40;;;;;;;;;;;;;;;;;;5009839;28;8777;-83
2023/06/20 13:16:05;;;;;;;;;;;;;;;;;;5009502;28;8548;-83
2023/06/20 13:18:33;;;;;;;;;;;;;;;;;;5009517;28;8965;-83
2023/06/20 13:20:59;;;;;;;;;;;;;;;;;;5003299;28;7315;-83
2023/06/20 13:23:25;;;;;;;;;;;;;;;;;;5003374;28;8617;-83
2023/06/20 13:25:50;;;;;;;;;;;;;;;;;;5008755;28;9722;-83
2023/06/20 13:28:16;;;;;;;;;;;;;;;;;;5006791;28;8546;-85
2023/06/20 13:30:42;;;;;;;;;;;;;;;;;;4992858;28;8715;-85
2023/06/20 13:33:08;;;;;;;;;;;;;;;;;;4991311;28;8963;-85
2023/06/20 13:35:34;;;;;;;;;;;;;;;;;;5013390;28;8791;-86
2023/06/20 13:38:01;;;;;;;;;;;;;;;;;;5004546;28;8958;-86
2023/06/20 13:40:30;;;;;;;;;;;;;;;;;;4991333;28;8481;-87
2023/06/20 13:42:56;;;;;;;;;;;;;;;;;;4989491;28;8562;-86
2023/06/20 13:45:22;;;;;;;;;;;;;;;;;;4990657;28;8906;-86
2023/06/20 13:47:48;;;;;;;;;;;;;;;;;;5005348;28;8545;-86
2023/06/20 13:50:15;;;;;;;;;;;;;;;;;;5000034;28;8464;-85
2023/06/20 13:52:40;;;;;;;;;;;;;;;;;;5004351;28;8902;-85
2023/06/20 13:55:06;;;;;;;;;;;;;;;;;;5000586;28;8495;-85
2023/06/20 13:57:33;;;;;;;;;;;;;;;;;;5008691;28;8507;-85
2023/06/20 14:00:10;;;;;;;;;;;;;;;;;;4990712;28;8667;-85
2023/06/20 14:02:35;;;;;;;;;;;;;;;;;;5008118;28;9084;-85
2023/06/20 14:05:01;;;;;;;;;;;;;;;;;;4991835;28;8603;-85
2023/06/20 14:07:28;;;;;;;;;;;;;;;;;;4989225;28;8734;-86
2023/06/20 14:09:54;;;;;;;;;;;;;;;;;;4990459;28;7007;-93
2023/06/20 14:12:22;;;;;;;;;;;;;;;;;;4995222;28;8478;-90
2023/06/20 14:14:48;;;;;;;;;;;;;;;;;;5008149;28;8957;-88
2023/06/20 14:17:13;;;;;;;;;;;;;;;;;;5002711;28;8438;-90
2023/06/20 14:19:39;;;;;;;;;;;;;;;;;;4972976;28;8653;-87
2023/06/20 14:22:04;;;;;;;;;;;;;;;;;;4992262;28;8589;-87
2023/06/20 14:24:31;;;;;;;;;;;;;;;;;;5008510;28;7294;-90
2023/06/20 14:26:57;;;;;;;;;;;;;;;;;;5005408;28;8701;-89
2023/06/20 14:29:23;;;;;;;;;;;;;;;;;;4998654;28;7321;-87
2023/06/20 14:31:48;;;;;;;;;;;;;;;;;;5005722;28;7390;-90
2023/06/20 14:34:14;;;;;;;;;;;;;;;;;;4973252;28;8562;-89
2023/06/20 14:36:39;;;;;;;;;;;;;;;;;;4985700;28;8586;-90
2023/06/20 14:39:05;;;;;;;;;;;;;;;;;;5002168;28;8611;-90
2023/06/20 14:41:30;;;;;;;;;;;;;;;;;;5008278;28;9205;-89
2023/06/20 14:43:56;;;;;;;;;;;;;;;;;;4992753;28;8646;-90
2023/06/20 14:46:22;;;;;;;;;;;;;;;;;;4996552;28;8585;-90
2023/06/20 14:48:49;;;;;;;;;;;;;;;;;;5010837;28;8821;-90
2023/06/20 14:51:15;;;;;;;;;;;;;;;;;;5002033;28;7013;-89
2023/06/20 14:53:41;;;;;;;;;;;;;;;;;;4995797;28;8555;-92
2023/06/20 14:56:06;;;;;;;;;;;;;;;;;;4996119;28;7169;-89
2023/06/20 14:58:31;;;;;;;;;;;;;;;;;;5008371;28;8814;-88
2023/06/20 15:00:58;;;;;;;;;;;;;;;;;;5002814;28;8461;-86
2023/06/20 15:03:25;;;;;;;;;;;;;;;;;;5000963;28;8960;-89
2023/06/20 15:05:50;;;;;;;;;;;;;;;;;;5004529;28;8509;-89
2023/06/20 15:08:16;;;;;;;;;;;;;;;;;;4985477;28;8577;-89
2023/06/20 15:10:41;;;;;;;;;;;;;;;;;;4994086;28;8453;-89
2023/06/20 15:13:07;;;;;;;;;;;;;;;;;;4992905;28;8811;-85
2023/06/20 15:15:32;;;;;;;;;;;;;;;;;;4975951;28;9120;-86
2023/06/20 15:17:58;;;;;;;;;;;;;;;;;;4975909;28;8610;-85
2023/06/20 15:20:24;;;;;;;;;;;;;;;;;;4975671;28;7227;-86
2023/06/20 15:22:51;;;;;;;;;;;;;;;;;;4994043;28;8576;-86
2023/06/20 15:25:17;;;;;;;;;;;;;;;;;;5012628;28;8889;-86
2023/06/20 15:27:43;;;;;;;;;;;;;;;;;;5011376;28;8789;-87
2023/06/20 15:30:09;;;;;;;;;;;;;;;;;;5011992;28;8794;-87
2023/06/20 15:32:35;;;;;;;;;;;;;;;;;;5011695;28;8544;-86
2023/06/20 15:35:00;;;;;;;;;;;;;;;;;;5011809;28;7389;-87
2023/06/20 15:37:26;;;;;;;;;;;;;;;;;;5011541;28;8571;-86
2023/06/20 15:39:52;;;;;;;;;;;;;;;;;;5011571;28;8526;-85
2023/06/20 15:42:18;;;;;;;;;;;;;;;;;;5011460;28;8893;-86
2023/06/20 15:44:46;;;;;;;;;;;;;;;;;;5011438;28;8866;-85
2023/06/20 15:47:11;;;;;;;;;;;;;;;;;;5011561;28;8756;-85
2023/06/20 15:49:36;;;;;;;;;;;;;;;;;;5011481;28;8512;-85
2023/06/20 15:52:02;;;;;;;;;;;;;;;;;;5011189;28;8600;-85
2023/06/20 15:54:28;;;;;;;;;;;;;;;;;;4992934;28;7284;-86
2023/06/20 15:56:54;;;;;;;;;;;;;;;;;;4993562;28;8502;-85
2023/06/20 15:59:19;;;;;;;;;;;;;;;;;;4995212;28;8462;-85
2023/06/20 16:01:45;;;;;;;;;;;;;;;;;;4991592;28;8880;-84
2023/06/20 16:04:10;;;;;;;;;;;;;;;;;;4991602;28;7151;-84
2023/06/20 16:06:36;;;;;;;;;;;;;;;;;;4991703;28;8520;-83
2023/06/20 16:09:02;;;;;;;;;;;;;;;;;;4991470;28;8819;-85
2023/06/20 16:11:29;;;;;;;;;;;;;;;;;;4991627;28;8938;-85
2023/06/20 16:13:57;;;;;;;;;;;;;;;;;;4991442;28;8928;-86
2023/06/20 16:16:24;;;;;;;;;;;;;;;;;;4991288;28;8608;-84
2023/06/20 16:18:51;;;;;;;;;;;;;;;;;;4991446;28;8784;-85
2023/06/20 16:21:18;;;;;;;;;;;;;;;;;;4991145;28;8910;-86
2023/06/20 16:23:44;;;;;;;;;;;;;;;;;;4991646;28;8542;-85
2023/06/20 16:26:11;;;;;;;;;;;;;;;;;;4991115;28;8516;-85
2023/06/20 16:28:36;;;;;;;;;;;;;;;;;;5000547;28;8679;-85
2023/06/20 16:31:03;;;;;;;;;;;;;;;;;;5010506;28;8461;-85
2023/06/20 16:33:29;;;;;;;;;;;;;;;;;;5010611;28;7193;-85
2023/06/20 16:35:57;;;;;;;;;;;;;;;;;;5010606;28;8544;-85
2023/06/20 16:38:24;;;;;;;;;;;;;;;;;;5010593;28;8447;-85
2023/06/20 16:40:49;;;;;;;;;;;;;;;;;;5010321;28;8579;-86
2023/06/20 16:43:16;;;;;;;;;;;;;;;;;;5010489;28;8416;-85
2023/06/20 16:45:42;;;;;;;;;;;;;;;;;;5000090;28;8839;-86
2023/06/20 16:48:07;;;;;;;;;;;;;;;;;;4997855;28;7033;-87
2023/06/20 16:50:32;;;;;;;;;;;;;;;;;;4990758;28;8816;-87
2023/06/20 16:52:58;;;;;;;;;;;;;;;;;;4990934;28;6936;-87
2023/06/20 16:55:23;;;;;;;;;;;;;;;;;;4991152;28;8791;-87
2023/06/20 16:57:49;;;;;;;;;;;;;;;;;;4985381;28;8540;-87
2023/06/20 17:00:15;;;;;;;;;;;;;;;;;;5010282;28;8535;-88
2023/06/20 17:02:40;;;;;;;;;;;;;;;;;;4994598;28;8489;-88